x

Buoy A01 - Mass. Bay/stellwagen (44029) Wave Buoy

2:04pm - Sun 30th Apr 2017 All times are EDT. -4 hours from GMT.

  • Sig Wave height 3.9ft
  • Peak Period 6s
  • Wind
    7mph, 9mph gusts
  • Sea Temp 47°f
  • Air Temp 45°f
  • Sea Pressure 1026.9mb
  • Buoy A01 - Mass. Bay/stellwagen
  • Buoy A01 - Mass. Bay/stellwagen

More Historic Weather Station data

Upgrade to MSW Pro to gain access to the past 30 days of data for over 8000 Wavebouys and Weather Stations around the globe.

Join Pro

Comparision Forecast

View Surf forecast
   
Sun 04/30 2:04pm 4ft 6s 7 9 mph 1026.9mb 47f 45f
1:04pm 3.5ft 6s 9 11 mph 1026.2mb 47f 45f
12:04pm 3.5ft 6s 11 13 mph 1025.8mb 47f 45f
11:04am 3.5ft 6s 9 11 mph 1026mb 47f 45f
10:04am 3ft 6s 13 16 mph 1025.6mb 47f 45f
9:04am 3ft 5s 16 18 mph 1026mb 47f 46f
8:04am 3ft 4s 18 20 mph 1025.1mb 47f 46f
7:04am  -   -  16 20 mph 1024.3mb 47f 47f
6:04am 2ft 7s 16 18 mph 1022.5mb 47f 49f
5:04am 2ft 3s 18 20 mph 1021.3mb 48f 51f
4:04am 1.6ft 3s 20 22 mph 1019.8mb 47f 52f
3:04am 1.6ft 8s 13 16 mph 1019.1mb 47f 54f
2:04am 1.3ft 8s 16 20 mph 1017.9mb 47f 56f
1:04am 2ft 8s 11 16 mph 1017mb 47f 56f
12:04am 2.5ft 8s 13 16 mph 1015.4mb 47f 56f
Sat 04/29 11:04pm 2.5ft 8s 13 16 mph 1014.7mb 47f 57f
10:04pm 2.5ft 8s 16
mph
1013.7mb 48f 58f
9:04pm 2.5ft 8s 11 13 mph 1013mb 48f 57f
8:04pm 3.5ft 8s 16
mph
1011.1mb 48f 59f
7:04pm 3ft 8s 16 18 mph 1010.7mb 48f 61f
6:04pm 3ft 8s 16 20 mph 1010.4mb 47f 63f
5:04pm 3ft 8s 16 18 mph 1008.9mb 48f 63f
4:04pm 2.5ft 9s 11 13 mph 1008.2mb 50f 60f
3:04pm 2.5ft 8s 9 13 mph 1008.4mb 49f 58f
2:04pm 2.5ft 8s 9 11 mph 1008.8mb 49f 58f
1:04pm 2.5ft 8s 9 11 mph 1009.4mb 49f 56f
12:04pm 2.5ft 8s 11 13 mph 1011.1mb 48f 56f
11:04am 3ft 8s 9
mph
1012.2mb 48f 54f
10:04am 1.6ft 8s 11
mph
1013.2mb 47f 54f
9:04am 2ft 8s 9
mph
1013.5mb 48f 51f
8:04am 2.5ft 8s 2 4 mph 1014.3mb 47f 51f
7:04am 3ft 8s 7
mph
1014.1mb 47f 51f
6:04am 2.5ft 8s 7 9 mph 1014.2mb 47f 52f
5:04am 2ft 8s 7 9 mph 1014.4mb 48f 52f
4:04am 2ft 8s 2 4 mph 1014mb 47f 52f
3:04am 1.6ft 8s 4
mph
1014mb 47f 52f
2:04am 2ft 9s 4
mph
1014.7mb 48f 53f
1:04am 2.5ft 9s 9
mph
1014.8mb 47f 54f
12:04am 3ft 9s 9 11 mph 1014.6mb 47f 56f
Fri 04/28 11:04pm 2.5ft 9s 9 11 mph 1014.6mb 46f 56f
10:04pm 2.5ft 9s 7
mph
1014.8mb 46f 55f
9:04pm 3ft 9s 7 9 mph 1014.2mb 46f 54f
8:04pm 4ft 8s 11
mph
1013.4mb 46f 52f
7:04pm 4.5ft 8s 11 13 mph 1012.7mb 46f 55f
6:04pm 3ft 9s 11 13 mph 1012.2mb 47f 56f
5:04pm 3ft 8s 9 11 mph 1012.3mb 47f 54f
4:04pm 3ft 9s 7 9 mph 1012.4mb 48f 53f
3:04pm 2.5ft 9s 9
mph
1012.9mb 48f 51f
2:04pm 3ft 9s 7 9 mph 1013.2mb 48f 51f
1:04pm 3ft 9s 2 4 mph 1013.2mb 48f 52f
12:04pm 2.5ft 9s 4 7 mph 1013.8mb 47f 50f
11:04am 3ft 9s 4
mph
1013.8mb 46f 49f
10:04am 3.5ft 10s 4 7 mph 1013mb 46f 49f
9:04am 3.5ft 9s 4 7 mph 1013.7mb 46f 48f
8:04am 3.5ft 10s 7 9 mph 1013.7mb 46f 48f
7:04am 3.5ft 9s 9 11 mph 1013.3mb 46f 48f
6:04am 3.5ft 9s 13 16 mph 1013.1mb 46f 49f
5:04am 4.5ft 9s 11
mph
1012.9mb 47f 49f
4:04am 3.5ft 10s 11 13 mph 1013.3mb 46f 49f
3:04am 5ft 9s 9
mph
1012.9mb 46f 49f
2:04am 3.5ft 9s 11 13 mph 1013mb 47f 50f
1:04am 4.5ft 10s 9 11 mph 1013mb 46f 50f
12:04am 3.5ft 10s 11
mph
1012.9mb 47f 50f
Thu 04/27 11:04pm 3.5ft 10s 11
mph
1013.1mb 47f 50f
10:04pm 4ft 10s 7 9 mph 1013.3mb 47f 50f
9:04pm 4.5ft 10s 2 4 mph 1013.4mb 47f 49f
8:04pm 5ft 9s 7
mph
1013.3mb 47f 48f
7:04pm 4.5ft 9s 4 7 mph 1012.5mb 46f 48f
6:04pm 4.5ft 9s 7
mph
1013mb 47f 47f
5:04pm 4ft 10s 7 9 mph 1012.6mb 47f 47f
4:04pm 3.5ft 9s 9 11 mph 1012.7mb 47f 48f
3:04pm 3.5ft 10s 7 9 mph 1012.7mb 49f 48f
2:04pm 4ft 10s 7
mph
1012.6mb 47f 47f
1:04pm 4ft 10s 4 7 mph 1012.5mb 46f 47f
12:04pm 3.5ft 9s 4
mph
1012.9mb 46f 48f
11:04am 4.5ft 10s 2
mph
1013mb 46f 48f
10:04am 4.5ft 9s 2 4 mph 1012.8mb 46f 47f
9:04am 4ft 10s 4
mph
1012.4mb 45f 47f
8:04am 6ft 11s 4 7 mph 1012.6mb 45f 46f
7:04am 6.5ft 14s 4 7 mph 1012.1mb 45f 46f
6:04am 4ft 10s 4 7 mph 1011.3mb 45f 46f
5:04am 4.5ft 9s 7 9 mph 1010.8mb 45f 46f
4:04am 5ft 9s 4 7 mph 1010.5mb 45f 46f
3:04am 4.5ft 9s 4 9 mph 1010.1mb 45f 46f
2:04am 4.5ft 8s 4
mph
1010.2mb 45f 46f
1:04am 4.5ft 7s 4 7 mph 1010.1mb 45f 46f
12:04am 4.5ft 7s 7
mph
1010mb 45f 47f
Wed 04/26 11:04pm 5ft 8s 4 7 mph 1009.8mb 45f 47f
10:04pm 4.5ft 8s 7
mph
1009.4mb 46f 47f
9:04pm 4.5ft 7s 13 16 mph 1009.4mb 46f 47f
8:04pm 4.5ft 7s 13 16 mph 1009.5mb 46f 48f